sensor_id;sensor_type;location;lat;lon;timestamp;temperature;humidity
61253;DHT22;47127;47.516;8.596;2023-04-09T00:02:12;7.80;99.90
61253;DHT22;47127;47.516;8.596;2023-04-09T00:04:38;7.80;99.90
61253;DHT22;47127;47.516;8.596;2023-04-09T00:07:03;7.70;99.90
61253;DHT22;47127;47.516;8.596;2023-04-09T00:09:29;7.70;99.90
61253;DHT22;47127;47.516;8.596;2023-04-09T00:11:55;7.70;99.90
61253;DHT22;47127;47.516;8.596;2023-04-09T00:14:21;7.70;99.90
61253;DHT22;47127;47.516;8.596;2023-04-09T00:16:47;7.60;99.90
61253;DHT22;47127;47.516;8.596;2023-04-09T00:19:12;7.50;99.90
61253;DHT22;47127;47.516;8.596;2023-04-09T00:21:38;7.50;99.90
61253;DHT22;47127;47.516;8.596;2023-04-09T00:24:04;7.40;99.90
61253;DHT22;47127;47.516;8.596;2023-04-09T00:26:30;7.40;99.90
61253;DHT22;47127;47.516;8.596;2023-04-09T00:28:56;7.40;99.90
61253;DHT22;47127;47.516;8.596;2023-04-09T00:31:21;7.30;99.90
61253;DHT22;47127;47.516;8.596;2023-04-09T00:33:47;7.40;99.90
61253;DHT22;47127;47.516;8.596;2023-04-09T00:36:13;7.40;99.90
61253;DHT22;47127;47.516;8.596;2023-04-09T00:38:38;7.50;99.90
61253;DHT22;47127;47.516;8.596;2023-04-09T00:41:04;7.50;99.90
61253;DHT22;47127;47.516;8.596;2023-04-09T00:43:29;7.50;99.90
61253;DHT22;47127;47.516;8.596;2023-04-09T00:45:55;7.60;99.90
61253;DHT22;47127;47.516;8.596;2023-04-09T00:48:22;7.60;99.90
61253;DHT22;47127;47.516;8.596;2023-04-09T00:50:48;7.70;99.90
61253;DHT22;47127;47.516;8.596;2023-04-09T00:53:13;7.70;99.90
61253;DHT22;47127;47.516;8.596;2023-04-09T00:55:40;7.80;99.90
61253;DHT22;47127;47.516;8.596;2023-04-09T00:58:06;7.70;99.90
61253;DHT22;47127;47.516;8.596;2023-04-09T01:00:32;7.60;99.90
61253;DHT22;47127;47.516;8.596;2023-04-09T01:02:58;7.60;99.90
61253;DHT22;47127;47.516;8.596;2023-04-09T01:05:33;7.50;99.90
61253;DHT22;47127;47.516;8.596;2023-04-09T01:08:32;7.50;99.90
61253;DHT22;47127;47.516;8.596;2023-04-09T01:11:09;7.60;99.90
61253;DHT22;47127;47.516;8.596;2023-04-09T01:16:41;7.70;99.90
61253;DHT22;47127;47.516;8.596;2023-04-09T01:20:17;7.70;99.90
61253;DHT22;47127;47.516;8.596;2023-04-09T01:30:36;7.50;99.90
61253;DHT22;47127;47.516;8.596;2023-04-09T01:33:02;7.50;99.90
61253;DHT22;47127;47.516;8.596;2023-04-09T01:35:28;7.40;99.90
61253;DHT22;47127;47.516;8.596;2023-04-09T01:37:55;7.40;99.90
61253;DHT22;47127;47.516;8.596;2023-04-09T01:40:21;7.40;99.90
61253;DHT22;47127;47.516;8.596;2023-04-09T01:42:49;7.40;99.90
61253;DHT22;47127;47.516;8.596;2023-04-09T01:45:15;7.30;99.90
61253;DHT22;47127;47.516;8.596;2023-04-09T01:47:41;7.30;99.90
61253;DHT22;47127;47.516;8.596;2023-04-09T01:50:07;7.40;99.90
61253;DHT22;47127;47.516;8.596;2023-04-09T01:52:36;7.40;99.90
61253;DHT22;47127;47.516;8.596;2023-04-09T01:55:02;7.50;99.90
61253;DHT22;47127;47.516;8.596;2023-04-09T01:57:29;7.60;99.90
61253;DHT22;47127;47.516;8.596;2023-04-09T01:59:55;7.60;99.90
61253;DHT22;47127;47.516;8.596;2023-04-09T02:02:27;7.60;99.90
61253;DHT22;47127;47.516;8.596;2023-04-09T02:04:59;7.60;99.90
61253;DHT22;47127;47.516;8.596;2023-04-09T02:07:46;7.60;99.90
61253;DHT22;47127;47.516;8.596;2023-04-09T02:10:14;7.50;99.90
61253;DHT22;47127;47.516;8.596;2023-04-09T02:12:46;7.40;99.90
61253;DHT22;47127;47.516;8.596;2023-04-09T02:15:14;7.50;99.90
61253;DHT22;47127;47.516;8.596;2023-04-09T02:17:39;7.50;99.90
61253;DHT22;47127;47.516;8.596;2023-04-09T02:20:06;7.50;99.90
61253;DHT22;47127;47.516;8.596;2023-04-09T02:22:32;7.40;99.90
61253;DHT22;47127;47.516;8.596;2023-04-09T02:24:57;7.40;99.90
61253;DHT22;47127;47.516;8.596;2023-04-09T02:27:23;7.40;99.90
61253;DHT22;47127;47.516;8.596;2023-04-09T02:29:49;7.40;99.90
61253;DHT22;47127;47.516;8.596;2023-04-09T02:32:15;7.40;99.90
61253;DHT22;47127;47.516;8.596;2023-04-09T02:34:40;7.40;99.90
61253;DHT22;47127;47.516;8.596;2023-04-09T02:37:06;7.40;99.90
61253;DHT22;47127;47.516;8.596;2023-04-09T02:39:32;7.40;99.90
61253;DHT22;47127;47.516;8.596;2023-04-09T02:41:57;7.40;99.90
61253;DHT22;47127;47.516;8.596;2023-04-09T02:44:23;7.40;99.90
61253;DHT22;47127;47.516;8.596;2023-04-09T02:46:50;7.30;99.90
61253;DHT22;47127;47.516;8.596;2023-04-09T02:49:16;7.20;99.90
61253;DHT22;47127;47.516;8.596;2023-04-09T02:51:42;7.20;99.90
61253;DHT22;47127;47.516;8.596;2023-04-09T02:54:08;7.20;99.90
61253;DHT22;47127;47.516;8.596;2023-04-09T02:56:33;7.10;99.90
61253;DHT22;47127;47.516;8.596;2023-04-09T02:58:59;7.20;99.90
61253;DHT22;47127;47.516;8.596;2023-04-09T03:01:24;7.10;99.90
61253;DHT22;47127;47.516;8.596;2023-04-09T03:03:50;7.10;99.90
61253;DHT22;47127;47.516;8.596;2023-04-09T03:06:15;7.10;99.90
61253;DHT22;47127;47.516;8.596;2023-04-09T03:08:42;7.00;99.90
61253;DHT22;47127;47.516;8.596;2023-04-09T03:11:09;7.00;99.90
61253;DHT22;47127;47.516;8.596;2023-04-09T03:13:35;6.90;99.90
61253;DHT22;47127;47.516;8.596;2023-04-09T03:16:00;6.80;99.90
61253;DHT22;47127;47.516;8.596;2023-04-09T03:18:26;6.70;99.90
61253;DHT22;47127;47.516;8.596;2023-04-09T03:20:51;6.60;99.90
61253;DHT22;47127;47.516;8.596;2023-04-09T03:23:17;6.60;99.90
61253;DHT22;47127;47.516;8.596;2023-04-09T03:25:42;6.50;99.90
61253;DHT22;47127;47.516;8.596;2023-04-09T03:28:08;6.50;99.90
61253;DHT22;47127;47.516;8.596;2023-04-09T03:30:33;6.50;99.90
61253;DHT22;47127;47.516;8.596;2023-04-09T03:32:59;6.60;99.90
61253;DHT22;47127;47.516;8.596;2023-04-09T03:35:24;6.70;99.90
61253;DHT22;47127;47.516;8.596;2023-04-09T03:37:50;6.60;99.90
61253;DHT22;47127;47.516;8.596;2023-04-09T03:40:16;6.50;99.90
61253;DHT22;47127;47.516;8.596;2023-04-09T03:42:42;6.60;99.90
61253;DHT22;47127;47.516;8.596;2023-04-09T03:45:08;6.70;99.90
61253;DHT22;47127;47.516;8.596;2023-04-09T03:47:33;6.80;99.90
61253;DHT22;47127;47.516;8.596;2023-04-09T03:49:59;6.70;99.90
61253;DHT22;47127;47.516;8.596;2023-04-09T03:52:25;6.60;99.90
61253;DHT22;47127;47.516;8.596;2023-04-09T03:54:50;6.60;99.90
61253;DHT22;47127;47.516;8.596;2023-04-09T03:57:16;6.50;99.90
61253;DHT22;47127;47.516;8.596;2023-04-09T03:59:41;6.50;99.90
61253;DHT22;47127;47.516;8.596;2023-04-09T04:02:07;6.50;99.90
61253;DHT22;47127;47.516;8.596;2023-04-09T04:04:32;6.40;99.90
61253;DHT22;47127;47.516;8.596;2023-04-09T04:06:58;6.30;99.90
61253;DHT22;47127;47.516;8.596;2023-04-09T04:09:23;6.40;99.90
61253;DHT22;47127;47.516;8.596;2023-04-09T04:11:49;6.20;99.90
61253;DHT22;47127;47.516;8.596;2023-04-09T04:14:14;6.10;99.90
61253;DHT22;47127;47.516;8.596;2023-04-09T04:16:40;6.10;99.90
61253;DHT22;47127;47.516;8.596;2023-04-09T04:19:06;6.00;99.90
61253;DHT22;47127;47.516;8.596;2023-04-09T04:21:32;6.00;99.90
61253;DHT22;47127;47.516;8.596;2023-04-09T04:23:57;6.00;99.90
61253;DHT22;47127;47.516;8.596;2023-04-09T04:26:23;6.00;99.90
61253;DHT22;47127;47.516;8.596;2023-04-09T04:28:49;6.00;99.90
61253;DHT22;47127;47.516;8.596;2023-04-09T04:31:16;5.90;99.90
61253;DHT22;47127;47.516;8.596;2023-04-09T04:33:41;5.90;99.90
61253;DHT22;47127;47.516;8.596;2023-04-09T04:36:12;5.90;99.90
61253;DHT22;47127;47.516;8.596;2023-04-09T04:38:38;5.90;99.90
61253;DHT22;47127;47.516;8.596;2023-04-09T04:41:05;5.90;99.90
61253;DHT22;47127;47.516;8.596;2023-04-09T04:43:31;5.90;99.90
61253;DHT22;47127;47.516;8.596;2023-04-09T04:45:57;5.80;99.90
61253;DHT22;47127;47.516;8.596;2023-04-09T04:48:22;5.80;99.90
61253;DHT22;47127;47.516;8.596;2023-04-09T04:50:55;5.90;99.90
61253;DHT22;47127;47.516;8.596;2023-04-09T04:53:21;6.00;99.90
61253;DHT22;47127;47.516;8.596;2023-04-09T04:55:47;6.00;99.90
61253;DHT22;47127;47.516;8.596;2023-04-09T04:58:12;6.00;99.90
61253;DHT22;47127;47.516;8.596;2023-04-09T05:00:38;6.00;99.90
61253;DHT22;47127;47.516;8.596;2023-04-09T05:03:03;6.10;99.90
61253;DHT22;47127;47.516;8.596;2023-04-09T05:05:29;6.20;99.90
61253;DHT22;47127;47.516;8.596;2023-04-09T05:07:54;6.20;99.90
61253;DHT22;47127;47.516;8.596;2023-04-09T05:10:20;6.30;99.90
61253;DHT22;47127;47.516;8.596;2023-04-09T05:12:46;6.30;99.90
61253;DHT22;47127;47.516;8.596;2023-04-09T05:15:11;6.40;99.90
61253;DHT22;47127;47.516;8.596;2023-04-09T05:17:37;6.50;99.90
61253;DHT22;47127;47.516;8.596;2023-04-09T05:20:02;6.60;99.90
61253;DHT22;47127;47.516;8.596;2023-04-09T05:22:28;6.70;99.90
61253;DHT22;47127;47.516;8.596;2023-04-09T05:24:54;6.80;99.90
61253;DHT22;47127;47.516;8.596;2023-04-09T05:27:20;6.70;99.90
61253;DHT22;47127;47.516;8.596;2023-04-09T05:29:48;6.80;99.90
61253;DHT22;47127;47.516;8.596;2023-04-09T05:32:14;6.80;99.90
61253;DHT22;47127;47.516;8.596;2023-04-09T05:34:40;6.70;99.90
61253;DHT22;47127;47.516;8.596;2023-04-09T05:37:05;6.60;99.90
61253;DHT22;47127;47.516;8.596;2023-04-09T05:39:31;6.60;99.90
61253;DHT22;47127;47.516;8.596;2023-04-09T05:41:59;6.60;99.90
61253;DHT22;47127;47.516;8.596;2023-04-09T05:44:27;6.60;99.90
61253;DHT22;47127;47.516;8.596;2023-04-09T05:46:52;6.50;99.90
61253;DHT22;47127;47.516;8.596;2023-04-09T05:49:18;6.40;99.90
61253;DHT22;47127;47.516;8.596;2023-04-09T05:51:43;6.40;99.90
61253;DHT22;47127;47.516;8.596;2023-04-09T05:54:09;6.40;99.90
61253;DHT22;47127;47.516;8.596;2023-04-09T05:56:35;6.50;99.90
61253;DHT22;47127;47.516;8.596;2023-04-09T05:59:00;6.40;99.90
61253;DHT22;47127;47.516;8.596;2023-04-09T06:01:26;6.40;99.90
61253;DHT22;47127;47.516;8.596;2023-04-09T06:03:52;6.50;99.90
61253;DHT22;47127;47.516;8.596;2023-04-09T06:06:18;6.60;99.90
61253;DHT22;47127;47.516;8.596;2023-04-09T06:08:44;6.80;99.90
61253;DHT22;47127;47.516;8.596;2023-04-09T06:11:13;6.80;99.90
61253;DHT22;47127;47.516;8.596;2023-04-09T06:13:39;6.80;99.90
61253;DHT22;47127;47.516;8.596;2023-04-09T06:16:06;6.70;99.90
61253;DHT22;47127;47.516;8.596;2023-04-09T06:18:32;6.60;99.90
61253;DHT22;47127;47.516;8.596;2023-04-09T06:23:28;6.80;99.90
61253;DHT22;47127;47.516;8.596;2023-04-09T06:25:54;6.90;99.90
61253;DHT22;47127;47.516;8.596;2023-04-09T06:28:19;7.10;99.90
61253;DHT22;47127;47.516;8.596;2023-04-09T06:30:45;7.10;99.90
61253;DHT22;47127;47.516;8.596;2023-04-09T06:33:11;7.10;99.90
61253;DHT22;47127;47.516;8.596;2023-04-09T06:35:37;6.80;99.90
61253;DHT22;47127;47.516;8.596;2023-04-09T06:38:02;6.80;99.90
61253;DHT22;47127;47.516;8.596;2023-04-09T06:40:28;6.90;99.90
61253;DHT22;47127;47.516;8.596;2023-04-09T06:42:54;6.70;99.90
61253;DHT22;47127;47.516;8.596;2023-04-09T06:45:20;6.90;99.90
61253;DHT22;47127;47.516;8.596;2023-04-09T06:47:46;6.80;99.90
61253;DHT22;47127;47.516;8.596;2023-04-09T06:50:11;7.00;99.90
61253;DHT22;47127;47.516;8.596;2023-04-09T06:52:37;6.90;99.90
61253;DHT22;47127;47.516;8.596;2023-04-09T06:55:03;7.00;99.90
61253;DHT22;47127;47.516;8.596;2023-04-09T06:57:29;7.00;99.90
61253;DHT22;47127;47.516;8.596;2023-04-09T06:59:54;7.10;99.90
61253;DHT22;47127;47.516;8.596;2023-04-09T07:02:20;7.20;99.90
61253;DHT22;47127;47.516;8.596;2023-04-09T07:04:46;7.40;99.90
61253;DHT22;47127;47.516;8.596;2023-04-09T07:07:12;7.40;99.90
61253;DHT22;47127;47.516;8.596;2023-04-09T07:09:37;7.00;99.90
61253;DHT22;47127;47.516;8.596;2023-04-09T07:12:03;7.10;99.90
61253;DHT22;47127;47.516;8.596;2023-04-09T07:14:28;7.10;99.90
61253;DHT22;47127;47.516;8.596;2023-04-09T07:16:54;7.30;99.90
61253;DHT22;47127;47.516;8.596;2023-04-09T07:19:20;7.40;99.90
61253;DHT22;47127;47.516;8.596;2023-04-09T07:21:46;7.50;99.90
61253;DHT22;47127;47.516;8.596;2023-04-09T07:24:12;7.50;99.90
61253;DHT22;47127;47.516;8.596;2023-04-09T07:26:38;7.30;99.90
61253;DHT22;47127;47.516;8.596;2023-04-09T07:29:03;7.40;99.90
61253;DHT22;47127;47.516;8.596;2023-04-09T07:31:29;7.50;99.90
61253;DHT22;47127;47.516;8.596;2023-04-09T07:33:56;7.10;99.90
61253;DHT22;47127;47.516;8.596;2023-04-09T07:36:21;7.40;99.90
61253;DHT22;47127;47.516;8.596;2023-04-09T07:38:47;7.50;99.90
61253;DHT22;47127;47.516;8.596;2023-04-09T07:41:12;7.80;99.90
61253;DHT22;47127;47.516;8.596;2023-04-09T07:43:39;7.90;99.90
61253;DHT22;47127;47.516;8.596;2023-04-09T07:46:05;8.10;99.90
61253;DHT22;47127;47.516;8.596;2023-04-09T07:48:31;8.20;99.90
61253;DHT22;47127;47.516;8.596;2023-04-09T07:50:56;8.10;99.90
61253;DHT22;47127;47.516;8.596;2023-04-09T07:53:22;8.10;99.90
61253;DHT22;47127;47.516;8.596;2023-04-09T07:55:50;8.00;99.90
61253;DHT22;47127;47.516;8.596;2023-04-09T07:58:16;8.10;99.90
61253;DHT22;47127;47.516;8.596;2023-04-09T08:00:41;8.30;99.90
61253;DHT22;47127;47.516;8.596;2023-04-09T08:03:07;8.20;99.90
61253;DHT22;47127;47.516;8.596;2023-04-09T08:05:34;8.40;99.90
61253;DHT22;47127;47.516;8.596;2023-04-09T08:08:00;8.50;99.90
61253;DHT22;47127;47.516;8.596;2023-04-09T08:10:25;8.60;99.90
61253;DHT22;47127;47.516;8.596;2023-04-09T08:12:51;8.70;99.90
61253;DHT22;47127;47.516;8.596;2023-04-09T08:15:17;8.90;99.90
61253;DHT22;47127;47.516;8.596;2023-04-09T08:17:42;9.10;99.90
61253;DHT22;47127;47.516;8.596;2023-04-09T08:20:08;9.10;99.90
61253;DHT22;47127;47.516;8.596;2023-04-09T08:22:35;9.20;99.90
61253;DHT22;47127;47.516;8.596;2023-04-09T08:25:02;9.10;99.90
61253;DHT22;47127;47.516;8.596;2023-04-09T08:27:28;9.40;99.90
61253;DHT22;47127;47.516;8.596;2023-04-09T08:29:54;9.40;99.90
61253;DHT22;47127;47.516;8.596;2023-04-09T08:32:19;9.30;99.90
61253;DHT22;47127;47.516;8.596;2023-04-09T08:34:45;9.40;99.90
61253;DHT22;47127;47.516;8.596;2023-04-09T08:37:11;9.40;99.90
61253;DHT22;47127;47.516;8.596;2023-04-09T08:39:36;9.20;99.90
61253;DHT22;47127;47.516;8.596;2023-04-09T08:42:05;9.40;99.90
61253;DHT22;47127;47.516;8.596;2023-04-09T08:44:32;9.50;99.90
61253;DHT22;47127;47.516;8.596;2023-04-09T08:46:58;9.30;99.90
61253;DHT22;47127;47.516;8.596;2023-04-09T08:49:24;9.60;99.90
61253;DHT22;47127;47.516;8.596;2023-04-09T08:51:50;9.80;99.90
61253;DHT22;47127;47.516;8.596;2023-04-09T08:54:16;9.70;99.90
61253;DHT22;47127;47.516;8.596;2023-04-09T08:56:45;9.60;99.90
61253;DHT22;47127;47.516;8.596;2023-04-09T08:59:15;9.80;99.90
61253;DHT22;47127;47.516;8.596;2023-04-09T09:01:42;10.10;99.90
61253;DHT22;47127;47.516;8.596;2023-04-09T09:04:11;9.90;99.90
61253;DHT22;47127;47.516;8.596;2023-04-09T09:06:39;10.10;99.90
61253;DHT22;47127;47.516;8.596;2023-04-09T09:09:13;10.10;99.90
61253;DHT22;47127;47.516;8.596;2023-04-09T09:11:41;10.30;99.90
61253;DHT22;47127;47.516;8.596;2023-04-09T09:14:09;10.30;99.90
61253;DHT22;47127;47.516;8.596;2023-04-09T09:16:35;10.40;99.90
61253;DHT22;47127;47.516;8.596;2023-04-09T09:19:04;10.50;99.90
61253;DHT22;47127;47.516;8.596;2023-04-09T09:21:32;10.30;99.90
61253;DHT22;47127;47.516;8.596;2023-04-09T09:23:57;10.30;99.90
61253;DHT22;47127;47.516;8.596;2023-04-09T09:26:25;10.40;99.90
61253;DHT22;47127;47.516;8.596;2023-04-09T09:28:52;10.60;99.90
61253;DHT22;47127;47.516;8.596;2023-04-09T09:31:19;10.60;99.90
61253;DHT22;47127;47.516;8.596;2023-04-09T09:33:47;10.80;99.90
61253;DHT22;47127;47.516;8.596;2023-04-09T09:36:14;10.70;99.90
61253;DHT22;47127;47.516;8.596;2023-04-09T09:38:55;10.70;99.90
61253;DHT22;47127;47.516;8.596;2023-04-09T09:41:22;10.60;99.90
61253;DHT22;47127;47.516;8.596;2023-04-09T09:43:48;10.80;99.90
61253;DHT22;47127;47.516;8.596;2023-04-09T09:46:14;10.80;99.90
61253;DHT22;47127;47.516;8.596;2023-04-09T09:48:40;10.60;99.90
61253;DHT22;47127;47.516;8.596;2023-04-09T09:51:12;10.70;99.90
61253;DHT22;47127;47.516;8.596;2023-04-09T09:53:42;10.80;99.90
61253;DHT22;47127;47.516;8.596;2023-04-09T09:56:14;10.60;99.90
61253;DHT22;47127;47.516;8.596;2023-04-09T09:58:44;10.60;99.90
61253;DHT22;47127;47.516;8.596;2023-04-09T10:01:13;10.50;99.90
61253;DHT22;47127;47.516;8.596;2023-04-09T10:03:42;10.80;99.90
61253;DHT22;47127;47.516;8.596;2023-04-09T10:06:10;11.00;99.90
61253;DHT22;47127;47.516;8.596;2023-04-09T10:08:37;11.00;99.90
61253;DHT22;47127;47.516;8.596;2023-04-09T10:11:06;11.20;99.90
61253;DHT22;47127;47.516;8.596;2023-04-09T10:13:40;11.20;99.90
61253;DHT22;47127;47.516;8.596;2023-04-09T10:16:08;11.50;99.90
61253;DHT22;47127;47.516;8.596;2023-04-09T10:18:33;11.40;99.90
61253;DHT22;47127;47.516;8.596;2023-04-09T10:21:08;11.30;99.80
61253;DHT22;47127;47.516;8.596;2023-04-09T10:23:39;11.40;99.60
61253;DHT22;47127;47.516;8.596;2023-04-09T10:26:05;11.60;99.70
61253;DHT22;47127;47.516;8.596;2023-04-09T10:28:36;11.60;99.40
61253;DHT22;47127;47.516;8.596;2023-04-09T10:31:03;11.70;98.20
61253;DHT22;47127;47.516;8.596;2023-04-09T10:33:29;11.60;98.70
61253;DHT22;47127;47.516;8.596;2023-04-09T10:36:02;11.90;98.60
61253;DHT22;47127;47.516;8.596;2023-04-09T10:38:45;12.10;98.50
61253;DHT22;47127;47.516;8.596;2023-04-09T10:41:28;12.20;98.50
61253;DHT22;47127;47.516;8.596;2023-04-09T10:43:54;12.30;98.40
61253;DHT22;47127;47.516;8.596;2023-04-09T10:46:36;12.50;97.50
61253;DHT22;47127;47.516;8.596;2023-04-09T10:49:18;12.50;98.30
61253;DHT22;47127;47.516;8.596;2023-04-09T10:59:43;12.90;97.60
61253;DHT22;47127;47.516;8.596;2023-04-09T11:07:23;12.80;96.50
61253;DHT22;47127;47.516;8.596;2023-04-09T11:09:49;12.70;96.10
61253;DHT22;47127;47.516;8.596;2023-04-09T11:12:15;12.70;96.70
61253;DHT22;47127;47.516;8.596;2023-04-09T11:14:40;12.70;96.50
61253;DHT22;47127;47.516;8.596;2023-04-09T11:17:06;13.00;96.10
61253;DHT22;47127;47.516;8.596;2023-04-09T11:19:35;13.00;96.10
61253;DHT22;47127;47.516;8.596;2023-04-09T11:22:05;13.00;96.00
61253;DHT22;47127;47.516;8.596;2023-04-09T11:24:41;13.30;95.30
61253;DHT22;47127;47.516;8.596;2023-04-09T11:27:07;13.50;94.60
61253;DHT22;47127;47.516;8.596;2023-04-09T11:29:36;13.70;93.40
61253;DHT22;47127;47.516;8.596;2023-04-09T11:32:02;13.60;93.50
61253;DHT22;47127;47.516;8.596;2023-04-09T11:34:30;13.90;93.40
61253;DHT22;47127;47.516;8.596;2023-04-09T11:36:55;14.00;93.10
61253;DHT22;47127;47.516;8.596;2023-04-09T11:39:23;13.90;92.80
61253;DHT22;47127;47.516;8.596;2023-04-09T11:41:49;14.10;92.70
61253;DHT22;47127;47.516;8.596;2023-04-09T11:44:14;14.20;91.30
61253;DHT22;47127;47.516;8.596;2023-04-09T11:46:41;14.00;91.80
61253;DHT22;47127;47.516;8.596;2023-04-09T11:49:06;14.40;91.30
61253;DHT22;47127;47.516;8.596;2023-04-09T11:51:32;14.80;89.30
61253;DHT22;47127;47.516;8.596;2023-04-09T11:54:04;14.80;89.60
61253;DHT22;47127;47.516;8.596;2023-04-09T11:56:35;15.00;90.10
61253;DHT22;47127;47.516;8.596;2023-04-09T11:59:02;15.10;87.50
61253;DHT22;47127;47.516;8.596;2023-04-09T12:01:31;15.00;85.00
61253;DHT22;47127;47.516;8.596;2023-04-09T12:03:58;15.00;83.40
61253;DHT22;47127;47.516;8.596;2023-04-09T12:06:24;15.00;82.50
61253;DHT22;47127;47.516;8.596;2023-04-09T12:08:57;15.30;83.00
61253;DHT22;47127;47.516;8.596;2023-04-09T12:11:30;15.20;80.40
61253;DHT22;47127;47.516;8.596;2023-04-09T12:14:00;14.40;82.90
61253;DHT22;47127;47.516;8.596;2023-04-09T12:16:29;14.30;85.60
61253;DHT22;47127;47.516;8.596;2023-04-09T12:19:06;14.20;85.20
61253;DHT22;47127;47.516;8.596;2023-04-09T12:22:04;13.70;85.60
61253;DHT22;47127;47.516;8.596;2023-04-09T12:24:31;14.10;85.00
61253;DHT22;47127;47.516;8.596;2023-04-09T12:26:56;14.50;84.00
61253;DHT22;47127;47.516;8.596;2023-04-09T12:29:22;14.90;82.20
61253;DHT22;47127;47.516;8.596;2023-04-09T12:31:49;14.90;82.20
61253;DHT22;47127;47.516;8.596;2023-04-09T12:34:15;14.30;82.90
61253;DHT22;47127;47.516;8.596;2023-04-09T12:36:40;14.70;77.40
61253;DHT22;47127;47.516;8.596;2023-04-09T12:39:09;14.70;76.20
61253;DHT22;47127;47.516;8.596;2023-04-09T12:41:35;14.70;77.10
61253;DHT22;47127;47.516;8.596;2023-04-09T12:44:01;14.80;77.00
61253;DHT22;47127;47.516;8.596;2023-04-09T12:46:26;15.40;72.30
61253;DHT22;47127;47.516;8.596;2023-04-09T12:48:53;15.60;73.00
61253;DHT22;47127;47.516;8.596;2023-04-09T12:51:18;15.60;72.90
61253;DHT22;47127;47.516;8.596;2023-04-09T12:53:45;15.40;72.00
61253;DHT22;47127;47.516;8.596;2023-04-09T12:56:11;15.40;71.50
61253;DHT22;47127;47.516;8.596;2023-04-09T12:58:36;15.80;70.30
61253;DHT22;47127;47.516;8.596;2023-04-09T13:01:03;15.70;73.20
61253;DHT22;47127;47.516;8.596;2023-04-09T13:03:28;15.60;73.90
61253;DHT22;47127;47.516;8.596;2023-04-09T13:05:54;15.80;74.50
61253;DHT22;47127;47.516;8.596;2023-04-09T13:08:20;15.50;72.60
61253;DHT22;47127;47.516;8.596;2023-04-09T13:10:45;15.40;73.20
61253;DHT22;47127;47.516;8.596;2023-04-09T13:13:11;15.70;71.10
61253;DHT22;47127;47.516;8.596;2023-04-09T13:15:40;15.50;69.60
61253;DHT22;47127;47.516;8.596;2023-04-09T13:18:10;15.70;69.30
61253;DHT22;47127;47.516;8.596;2023-04-09T13:20:36;16.00;67.30
61253;DHT22;47127;47.516;8.596;2023-04-09T13:23:02;16.40;66.50
61253;DHT22;47127;47.516;8.596;2023-04-09T13:25:27;16.40;65.50
61253;DHT22;47127;47.516;8.596;2023-04-09T13:27:53;16.40;64.00
61253;DHT22;47127;47.516;8.596;2023-04-09T13:30:20;16.50;63.00
61253;DHT22;47127;47.516;8.596;2023-04-09T13:32:45;16.80;63.30
61253;DHT22;47127;47.516;8.596;2023-04-09T13:35:11;16.60;63.30
61253;DHT22;47127;47.516;8.596;2023-04-09T13:37:36;16.30;63.00
61253;DHT22;47127;47.516;8.596;2023-04-09T13:40:02;16.70;64.20
61253;DHT22;47127;47.516;8.596;2023-04-09T13:42:28;16.70;63.20
61253;DHT22;47127;47.516;8.596;2023-04-09T13:44:55;16.90;62.50
61253;DHT22;47127;47.516;8.596;2023-04-09T13:47:23;17.30;60.70
61253;DHT22;47127;47.516;8.596;2023-04-09T13:49:48;16.70;60.90
61253;DHT22;47127;47.516;8.596;2023-04-09T13:52:16;17.10;59.90
61253;DHT22;47127;47.516;8.596;2023-04-09T13:54:41;17.00;59.20
61253;DHT22;47127;47.516;8.596;2023-04-09T13:57:08;17.00;59.40
61253;DHT22;47127;47.516;8.596;2023-04-09T13:59:34;17.20;58.10
61253;DHT22;47127;47.516;8.596;2023-04-09T14:02:00;17.00;58.30
61253;DHT22;47127;47.516;8.596;2023-04-09T14:04:26;17.40;58.80
61253;DHT22;47127;47.516;8.596;2023-04-09T14:06:51;17.30;58.50
61253;DHT22;47127;47.516;8.596;2023-04-09T14:09:18;17.20;58.20
61253;DHT22;47127;47.516;8.596;2023-04-09T14:11:44;17.10;59.50
61253;DHT22;47127;47.516;8.596;2023-04-09T14:14:09;17.40;58.50
61253;DHT22;47127;47.516;8.596;2023-04-09T14:16:35;17.30;58.00
61253;DHT22;47127;47.516;8.596;2023-04-09T14:19:00;17.40;57.60
61253;DHT22;47127;47.516;8.596;2023-04-09T14:21:28;17.60;57.80
61253;DHT22;47127;47.516;8.596;2023-04-09T14:23:53;17.60;56.90
61253;DHT22;47127;47.516;8.596;2023-04-09T14:26:19;17.30;57.80
61253;DHT22;47127;47.516;8.596;2023-04-09T14:28:45;17.00;57.70
61253;DHT22;47127;47.516;8.596;2023-04-09T14:31:12;17.30;57.00
61253;DHT22;47127;47.516;8.596;2023-04-09T14:33:39;18.00;56.00
61253;DHT22;47127;47.516;8.596;2023-04-09T14:36:05;17.50;55.90
61253;DHT22;47127;47.516;8.596;2023-04-09T14:38:32;17.40;56.00
61253;DHT22;47127;47.516;8.596;2023-04-09T14:40:58;17.40;55.80
61253;DHT22;47127;47.516;8.596;2023-04-09T14:43:26;17.30;56.50
61253;DHT22;47127;47.516;8.596;2023-04-09T14:45:52;17.50;55.80
61253;DHT22;47127;47.516;8.596;2023-04-09T14:48:18;18.00;55.40
61253;DHT22;47127;47.516;8.596;2023-04-09T14:50:47;17.90;54.90
61253;DHT22;47127;47.516;8.596;2023-04-09T14:53:12;18.00;54.60
61253;DHT22;47127;47.516;8.596;2023-04-09T14:55:38;18.50;54.10
61253;DHT22;47127;47.516;8.596;2023-04-09T14:58:04;18.30;54.20
61253;DHT22;47127;47.516;8.596;2023-04-09T15:00:32;18.30;53.90
61253;DHT22;47127;47.516;8.596;2023-04-09T15:02:58;18.10;54.00
61253;DHT22;47127;47.516;8.596;2023-04-09T15:05:24;17.90;53.70
61253;DHT22;47127;47.516;8.596;2023-04-09T15:07:50;18.20;54.40
61253;DHT22;47127;47.516;8.596;2023-04-09T15:10:15;18.00;54.40
61253;DHT22;47127;47.516;8.596;2023-04-09T15:12:41;18.20;53.90
61253;DHT22;47127;47.516;8.596;2023-04-09T15:15:07;18.30;53.60
61253;DHT22;47127;47.516;8.596;2023-04-09T15:17:33;18.10;53.50
61253;DHT22;47127;47.516;8.596;2023-04-09T15:19:59;17.90;53.90
61253;DHT22;47127;47.516;8.596;2023-04-09T15:22:24;18.20;53.60
61253;DHT22;47127;47.516;8.596;2023-04-09T15:24:50;17.80;53.70
61253;DHT22;47127;47.516;8.596;2023-04-09T15:27:16;17.50;53.90
61253;DHT22;47127;47.516;8.596;2023-04-09T15:29:42;17.80;53.50
61253;DHT22;47127;47.516;8.596;2023-04-09T15:32:08;18.10;53.30
61253;DHT22;47127;47.516;8.596;2023-04-09T15:34:33;18.20;52.70
61253;DHT22;47127;47.516;8.596;2023-04-09T15:36:59;18.20;53.30
61253;DHT22;47127;47.516;8.596;2023-04-09T15:39:25;18.30;52.80
61253;DHT22;47127;47.516;8.596;2023-04-09T15:41:53;18.10;52.80
61253;DHT22;47127;47.516;8.596;2023-04-09T15:44:20;17.40;53.60
61253;DHT22;47127;47.516;8.596;2023-04-09T15:46:47;17.80;53.00
61253;DHT22;47127;47.516;8.596;2023-04-09T15:49:14;17.80;52.90
61253;DHT22;47127;47.516;8.596;2023-04-09T15:51:39;18.10;52.70
61253;DHT22;47127;47.516;8.596;2023-04-09T15:54:05;18.10;52.60
61253;DHT22;47127;47.516;8.596;2023-04-09T15:56:32;17.90;52.40
61253;DHT22;47127;47.516;8.596;2023-04-09T15:59:01;18.00;52.40
61253;DHT22;47127;47.516;8.596;2023-04-09T16:01:30;18.40;52.10
61253;DHT22;47127;47.516;8.596;2023-04-09T16:03:56;18.60;51.60
61253;DHT22;47127;47.516;8.596;2023-04-09T16:06:21;18.50;52.00